Terminal Aerodrome Forecast
Issued by NWS Billings, MT

Home | Current Version | Previous Version | Text Only | Print | Product List | Glossary On
Versions: 1 2 3 4 5 6 7 8 9 10 11 12 13 14 15 16 17 18 19 20 21 22 23 24
445
FTUS45 KBYZ 031732
TAFSHR
TAF
KSHR 031732Z 0318/0418 30008KT P6SM VCSH BKN050
     FM040000 29006KT P6SM BKN100 WS020/30038KT
     FM040600 VRB05KT P6SM OVC070=

USA.gov is the U.S. government's official web portal to all federal, state and local government web resources and services.